APG786 RPVE-RPLL
Flight info
| Callsign | APG786 |
|---|---|
| Flight time | 0h 37m |
| Altitude | 24000 |
| Route | MINOR8A MINOR B473 LAIYA LAIYA1A |
| Aircraft | A320/M-SDE3FGHIRWY/LB1 |
Departure
| Time | 2026-04-22 18:13 |
|---|---|
| Airport | Godofredo P. Ramos Airport (RPVE) |
Arrival
| Time | 2026-04-22 18:50 |
|---|---|
| Airport | Ninoy Aquino International Airport (RPLL) |
| Time | Latitude | Longitude | Altitude | Speed | Heading |
|---|---|---|---|---|---|
| 2026-04-22 17:52 | 11.92627 | 121.96268 | 40 ft | 0 kts | 152° |
| 2026-04-22 18:05 | 11.92628 | 121.96267 | 39 ft | 2 kts | 152° |
| 2026-04-22 18:06 | 11.92650 | 121.96260 | 41 ft | 4 kts | 193° |
| 2026-04-22 18:06 | 11.92671 | 121.96273 | 40 ft | 4 kts | 234° |
| 2026-04-22 18:06 | 11.92679 | 121.96285 | 41 ft | 0 kts | 243° |
| 2026-04-22 18:09 | 11.92667 | 121.96262 | 42 ft | 14 kts | 243° |
| 2026-04-22 18:09 | 11.92681 | 121.96182 | 42 ft | 12 kts | 330° |
| 2026-04-22 18:10 | 11.92762 | 121.96142 | 37 ft | 14 kts | 333° |
| 2026-04-22 18:10 | 11.92788 | 121.96052 | 33 ft | 15 kts | 248° |
| 2026-04-22 18:10 | 11.92714 | 121.95908 | 34 ft | 35 kts | 245° |
| 2026-04-22 18:10 | 11.92583 | 121.95656 | 32 ft | 41 kts | 244° |
| 2026-04-22 18:11 | 11.92455 | 121.95393 | 31 ft | 41 kts | 242° |
| 2026-04-22 18:11 | 11.92334 | 121.95158 | 33 ft | 27 kts | 243° |
| 2026-04-22 18:11 | 11.92251 | 121.95060 | 34 ft | 10 kts | 226° |
| 2026-04-22 18:11 | 11.92237 | 121.95041 | 35 ft | 4 kts | 251° |
| 2026-04-22 18:12 | 11.92268 | 121.95020 | 35 ft | 3 kts | 39° |
| 2026-04-22 18:12 | 11.92272 | 121.95030 | 34 ft | 1 kts | 65° |
| 2026-04-22 18:12 | 11.92278 | 121.95043 | 34 ft | 5 kts | 65° |
| 2026-04-22 18:12 | 11.92437 | 121.95361 | 33 ft | 88 kts | 62° |
| 2026-04-22 18:13 | 11.92819 | 121.96111 | 99 ft | 142 kts | 62° |
| 2026-04-22 18:13 | 11.93164 | 121.96987 | 892 ft | 128 kts | 70° |
| 2026-04-22 18:13 | 11.93460 | 121.97874 | 1466 ft | 137 kts | 71° |
| 2026-04-22 18:13 | 11.93738 | 121.98814 | 2075 ft | 137 kts | 73° |
| 2026-04-22 18:14 | 11.94099 | 121.99716 | 2606 ft | 145 kts | 60° |
| 2026-04-22 18:14 | 11.94659 | 122.00660 | 2912 ft | 166 kts | 59° |
| 2026-04-22 18:14 | 11.95300 | 122.01726 | 3200 ft | 184 kts | 60° |
| 2026-04-22 18:14 | 11.96127 | 122.02825 | 3437 ft | 209 kts | 42° |
| 2026-04-22 18:15 | 11.97472 | 122.03603 | 3772 ft | 238 kts | 25° |
| 2026-04-22 18:15 | 11.99062 | 122.04329 | 4240 ft | 262 kts | 27° |
| 2026-04-22 18:15 | 12.00743 | 122.05153 | 5010 ft | 272 kts | 28° |
| 2026-04-22 18:15 | 12.02458 | 122.06012 | 5902 ft | 276 kts | 27° |
| 2026-04-22 18:16 | 12.04191 | 122.06888 | 6812 ft | 280 kts | 27° |
| 2026-04-22 18:16 | 12.05949 | 122.07781 | 7667 ft | 285 kts | 26° |
| 2026-04-22 18:16 | 12.07718 | 122.08681 | 8469 ft | 290 kts | 26° |
| 2026-04-22 18:16 | 12.09540 | 122.09606 | 9306 ft | 295 kts | 25° |
| 2026-04-22 18:17 | 12.11394 | 122.10546 | 10114 ft | 300 kts | 25° |
| 2026-04-22 18:17 | 12.13330 | 122.11528 | 10482 ft | 322 kts | 26° |
| 2026-04-22 18:17 | 12.15400 | 122.12574 | 10797 ft | 341 kts | 26° |
| 2026-04-22 18:17 | 12.17557 | 122.13666 | 11407 ft | 349 kts | 26° |
| 2026-04-22 18:18 | 12.19750 | 122.14780 | 12098 ft | 355 kts | 26° |
| 2026-04-22 18:18 | 12.21974 | 122.15912 | 12790 ft | 360 kts | 26° |
| 2026-04-22 18:18 | 12.24230 | 122.17060 | 13470 ft | 365 kts | 26° |
| 2026-04-22 18:18 | 12.26518 | 122.18219 | 14083 ft | 369 kts | 26° |
| 2026-04-22 18:19 | 12.28828 | 122.19389 | 14700 ft | 372 kts | 26° |
| 2026-04-22 18:19 | 12.31161 | 122.20567 | 15308 ft | 376 kts | 26° |
| 2026-04-22 18:19 | 12.33627 | 122.21474 | 15897 ft | 379 kts | 12° |
| 2026-04-22 18:19 | 12.36258 | 122.21744 | 16489 ft | 383 kts | 358° |
| 2026-04-22 18:20 | 12.38900 | 122.21341 | 17052 ft | 387 kts | 344° |
| 2026-04-22 18:20 | 12.41386 | 122.20267 | 17587 ft | 391 kts | 329° |
| 2026-04-22 18:20 | 12.43665 | 122.18719 | 18112 ft | 395 kts | 326° |
| 2026-04-22 18:20 | 12.45949 | 122.17127 | 18602 ft | 398 kts | 326° |
| 2026-04-22 18:21 | 12.48243 | 122.15535 | 19105 ft | 400 kts | 326° |
| 2026-04-22 18:21 | 12.50556 | 122.13930 | 19603 ft | 402 kts | 326° |
| 2026-04-22 18:21 | 12.52877 | 122.12318 | 20112 ft | 404 kts | 326° |
| 2026-04-22 18:21 | 12.55211 | 122.10699 | 20592 ft | 406 kts | 325° |
| 2026-04-22 18:22 | 12.57557 | 122.09068 | 21079 ft | 409 kts | 325° |
| 2026-04-22 18:22 | 12.59912 | 122.07426 | 21568 ft | 411 kts | 325° |
| 2026-04-22 18:22 | 12.62281 | 122.05775 | 22031 ft | 413 kts | 325° |
| 2026-04-22 18:22 | 12.64666 | 122.04115 | 22489 ft | 416 kts | 325° |
| 2026-04-22 18:23 | 12.67063 | 122.02448 | 22955 ft | 418 kts | 325° |
| 2026-04-22 18:23 | 12.69478 | 122.00767 | 23405 ft | 420 kts | 325° |
| 2026-04-22 18:23 | 12.71905 | 121.99081 | 23748 ft | 423 kts | 325° |
| 2026-04-22 18:24 | 12.76763 | 121.95705 | 23895 ft | 420 kts | 325° |
| 2026-04-22 18:24 | 12.79179 | 121.94023 | 23898 ft | 419 kts | 325° |
| 2026-04-22 18:24 | 12.83991 | 121.90668 | 23899 ft | 419 kts | 325° |
| 2026-04-22 18:25 | 12.86401 | 121.88987 | 23898 ft | 419 kts | 325° |
| 2026-04-22 18:25 | 12.88811 | 121.87306 | 23899 ft | 419 kts | 325° |
| 2026-04-22 18:25 | 12.91220 | 121.85624 | 23899 ft | 419 kts | 325° |
| 2026-04-22 18:26 | 12.96038 | 121.82259 | 23897 ft | 419 kts | 325° |
| 2026-04-22 18:26 | 12.98446 | 121.80576 | 23896 ft | 419 kts | 325° |
| 2026-04-22 18:26 | 13.00823 | 121.78917 | 23896 ft | 419 kts | 325° |
| 2026-04-22 18:26 | 13.03232 | 121.77238 | 23899 ft | 419 kts | 325° |
| 2026-04-22 18:27 | 13.05647 | 121.75555 | 23896 ft | 418 kts | 325° |
| 2026-04-22 18:27 | 13.08087 | 121.73853 | 23899 ft | 418 kts | 325° |
| 2026-04-22 18:27 | 13.10490 | 121.72175 | 23899 ft | 418 kts | 325° |
| 2026-04-22 18:27 | 13.12894 | 121.70493 | 23898 ft | 418 kts | 325° |
| 2026-04-22 18:28 | 13.15299 | 121.68810 | 23894 ft | 418 kts | 325° |
| 2026-04-22 18:28 | 13.17668 | 121.67152 | 23899 ft | 418 kts | 325° |
| 2026-04-22 18:28 | 13.20070 | 121.65473 | 23898 ft | 418 kts | 325° |
| 2026-04-22 18:28 | 13.22476 | 121.63792 | 23897 ft | 418 kts | 325° |
| 2026-04-22 18:29 | 13.24881 | 121.62110 | 23897 ft | 418 kts | 325° |
| 2026-04-22 18:29 | 13.27278 | 121.60430 | 23896 ft | 418 kts | 325° |
| 2026-04-22 18:29 | 13.29674 | 121.58751 | 23895 ft | 418 kts | 325° |
| 2026-04-22 18:29 | 13.32074 | 121.57070 | 23895 ft | 418 kts | 325° |
| 2026-04-22 18:30 | 13.34475 | 121.55389 | 23895 ft | 418 kts | 325° |
| 2026-04-22 18:30 | 13.39276 | 121.52023 | 23901 ft | 418 kts | 325° |
| 2026-04-22 18:30 | 13.41682 | 121.50336 | 23902 ft | 418 kts | 325° |
| 2026-04-22 18:31 | 13.44084 | 121.48654 | 23904 ft | 418 kts | 324° |
| 2026-04-22 18:31 | 13.46484 | 121.46975 | 23906 ft | 417 kts | 324° |
| 2026-04-22 18:31 | 13.48884 | 121.45295 | 23906 ft | 417 kts | 324° |
| 2026-04-22 18:31 | 13.51277 | 121.43617 | 23906 ft | 417 kts | 324° |
| 2026-04-22 18:32 | 13.53673 | 121.41937 | 23904 ft | 417 kts | 324° |
| 2026-04-22 18:32 | 13.56065 | 121.40258 | 23909 ft | 417 kts | 324° |
| 2026-04-22 18:32 | 13.58460 | 121.38576 | 23909 ft | 417 kts | 324° |
| 2026-04-22 18:32 | 13.60858 | 121.36898 | 23909 ft | 417 kts | 324° |
| 2026-04-22 18:33 | 13.63255 | 121.35227 | 23909 ft | 417 kts | 325° |
| 2026-04-22 18:33 | 13.65653 | 121.33558 | 23908 ft | 417 kts | 325° |
| 2026-04-22 18:33 | 13.68055 | 121.31889 | 23907 ft | 416 kts | 325° |
| 2026-04-22 18:33 | 13.70455 | 121.30220 | 23906 ft | 417 kts | 325° |
| 2026-04-22 18:34 | 13.72856 | 121.28549 | 23906 ft | 416 kts | 325° |
| 2026-04-22 18:34 | 13.75219 | 121.26905 | 23860 ft | 417 kts | 325° |
| 2026-04-22 18:34 | 13.77669 | 121.25199 | 23042 ft | 421 kts | 325° |
| 2026-04-22 18:34 | 13.80048 | 121.23543 | 22401 ft | 418 kts | 325° |
| 2026-04-22 18:35 | 13.82468 | 121.21858 | 21901 ft | 411 kts | 325° |
| 2026-04-22 18:35 | 13.84791 | 121.20239 | 21401 ft | 406 kts | 325° |
| 2026-04-22 18:35 | 13.87115 | 121.18620 | 20888 ft | 402 kts | 325° |
| 2026-04-22 18:35 | 13.89422 | 121.17011 | 20381 ft | 398 kts | 325° |
| 2026-04-22 18:36 | 13.91704 | 121.15417 | 19849 ft | 395 kts | 325° |
| 2026-04-22 18:36 | 13.93985 | 121.13852 | 19321 ft | 393 kts | 329° |
| 2026-04-22 18:36 | 13.96456 | 121.12661 | 18779 ft | 393 kts | 341° |
| 2026-04-22 18:36 | 13.99109 | 121.12003 | 18235 ft | 392 kts | 349° |
| 2026-04-22 18:37 | 14.01792 | 121.11498 | 17628 ft | 391 kts | 349° |
| 2026-04-22 18:37 | 14.04457 | 121.10993 | 17084 ft | 389 kts | 349° |
| 2026-04-22 18:37 | 14.06251 | 121.10651 | 16722 ft | 387 kts | 349° |
| 2026-04-22 18:37 | 14.09743 | 121.09987 | 16021 ft | 384 kts | 350° |
| 2026-04-22 18:38 | 14.12368 | 121.09489 | 15486 ft | 382 kts | 349° |
| 2026-04-22 18:38 | 14.14968 | 121.08997 | 15013 ft | 378 kts | 350° |
| 2026-04-22 18:38 | 14.17535 | 121.08509 | 14532 ft | 374 kts | 350° |
| 2026-04-22 18:39 | 14.22599 | 121.07544 | 13487 ft | 363 kts | 350° |
| 2026-04-22 18:39 | 14.25048 | 121.07079 | 12828 ft | 349 kts | 350° |
| 2026-04-22 18:39 | 14.27376 | 121.06633 | 12349 ft | 333 kts | 351° |
| 2026-04-22 18:39 | 14.29617 | 121.06205 | 11810 ft | 322 kts | 351° |
| 2026-04-22 18:40 | 14.31786 | 121.05792 | 11296 ft | 313 kts | 351° |
| 2026-04-22 18:40 | 14.33922 | 121.05387 | 10792 ft | 312 kts | 351° |
| 2026-04-22 18:40 | 14.35335 | 121.05118 | 10454 ft | 311 kts | 351° |
| 2026-04-22 18:40 | 14.37433 | 121.04720 | 9987 ft | 302 kts | 351° |
| 2026-04-22 18:41 | 14.40131 | 121.04208 | 9731 ft | 297 kts | 352° |
| 2026-04-22 18:41 | 14.42164 | 121.03823 | 9600 ft | 297 kts | 351° |
| 2026-04-22 18:41 | 14.44192 | 121.03435 | 9462 ft | 296 kts | 350° |
| 2026-04-22 18:41 | 14.46140 | 121.02658 | 8931 ft | 306 kts | 325° |
| 2026-04-22 18:42 | 14.47166 | 121.01646 | 8770 ft | 302 kts | 308° |
| 2026-04-22 18:42 | 14.48072 | 120.99725 | 8220 ft | 297 kts | 282° |
| 2026-04-22 18:42 | 14.48083 | 120.97624 | 7557 ft | 294 kts | 256° |
| 2026-04-22 18:42 | 14.47285 | 120.95704 | 6878 ft | 291 kts | 239° |
| 2026-04-22 18:43 | 14.46287 | 120.93891 | 6179 ft | 290 kts | 239° |
| 2026-04-22 18:43 | 14.45294 | 120.92093 | 5498 ft | 286 kts | 239° |
| 2026-04-22 18:43 | 14.44326 | 120.90339 | 4901 ft | 281 kts | 239° |
| 2026-04-22 18:43 | 14.43391 | 120.88637 | 4683 ft | 262 kts | 239° |
| 2026-04-22 18:44 | 14.42526 | 120.87060 | 4539 ft | 243 kts | 239° |
| 2026-04-22 18:44 | 14.41727 | 120.85600 | 4428 ft | 227 kts | 239° |
| 2026-04-22 18:44 | 14.40955 | 120.84190 | 4311 ft | 225 kts | 239° |
| 2026-04-22 18:44 | 14.40186 | 120.82788 | 4206 ft | 224 kts | 239° |
| 2026-04-22 18:45 | 14.39447 | 120.81380 | 4110 ft | 224 kts | 247° |
| 2026-04-22 18:45 | 14.39354 | 120.79812 | 3904 ft | 222 kts | 290° |
| 2026-04-22 18:45 | 14.40298 | 120.78607 | 3710 ft | 220 kts | 333° |
| 2026-04-22 18:45 | 14.41767 | 120.78389 | 3519 ft | 217 kts | 18° |
| 2026-04-22 18:46 | 14.42984 | 120.79231 | 3339 ft | 213 kts | 58° |
| 2026-04-22 18:46 | 14.43462 | 120.80651 | 3159 ft | 212 kts | 81° |
| 2026-04-22 18:46 | 14.43713 | 120.82151 | 2972 ft | 212 kts | 82° |
| 2026-04-22 18:46 | 14.43958 | 120.83642 | 2788 ft | 208 kts | 82° |
| 2026-04-22 18:47 | 14.44198 | 120.85099 | 2606 ft | 204 kts | 82° |
| 2026-04-22 18:47 | 14.44435 | 120.86532 | 2429 ft | 201 kts | 81° |
| 2026-04-22 18:47 | 14.44668 | 120.87946 | 2262 ft | 199 kts | 82° |
| 2026-04-22 18:47 | 14.44901 | 120.89344 | 2085 ft | 196 kts | 82° |
| 2026-04-22 18:48 | 14.45131 | 120.90717 | 1913 ft | 192 kts | 82° |
| 2026-04-22 18:48 | 14.45394 | 120.92060 | 1786 ft | 192 kts | 71° |
| 2026-04-22 18:48 | 14.46029 | 120.93305 | 1525 ft | 198 kts | 61° |
| 2026-04-22 18:48 | 14.46705 | 120.94489 | 1259 ft | 185 kts | 62° |
| 2026-04-22 18:49 | 14.47318 | 120.95578 | 1025 ft | 167 kts | 62° |
| 2026-04-22 18:49 | 14.47875 | 120.96576 | 824 ft | 154 kts | 61° |
| 2026-04-22 18:49 | 14.48374 | 120.97474 | 650 ft | 141 kts | 61° |
| 2026-04-22 18:49 | 14.48851 | 120.98330 | 465 ft | 136 kts | 61° |
| 2026-04-22 18:50 | 14.49322 | 120.99178 | 286 ft | 134 kts | 62° |
| 2026-04-22 18:50 | 14.49775 | 120.99994 | 137 ft | 132 kts | 59° |
| 2026-04-22 18:50 | 14.50213 | 121.00795 | 65 ft | 117 kts | 61° |
| 2026-04-22 18:50 | 14.50484 | 121.01276 | 65 ft | 34 kts | 58° |
| 2026-04-22 18:51 | 14.50582 | 121.01445 | 64 ft | 27 kts | 57° |
| 2026-04-22 18:51 | 14.50679 | 121.01616 | 66 ft | 27 kts | 58° |
| 2026-04-22 18:51 | 14.50758 | 121.01719 | 62 ft | 16 kts | 35° |
| 2026-04-22 18:51 | 14.50851 | 121.01786 | 64 ft | 16 kts | 27° |
| 2026-04-22 18:52 | 14.50899 | 121.01775 | 64 ft | 6 kts | 314° |
| 2026-04-22 18:52 | 14.50900 | 121.01738 | 64 ft | 5 kts | 254° |
| 2026-04-22 18:52 | 14.50892 | 121.01680 | 65 ft | 10 kts | 287° |
| 2026-04-22 18:52 | 14.50904 | 121.01659 | 61 ft | 0 kts | 303° |
| 2026-04-22 18:54 | 14.50905 | 121.01658 | 68 ft | 4 kts | 303° |
| 2026-04-22 18:54 | 14.50898 | 121.01582 | 63 ft | 12 kts | 242° |
| 2026-04-22 18:54 | 14.50859 | 121.01509 | 60 ft | 11 kts | 240° |
| 2026-04-22 18:54 | 14.50823 | 121.01445 | 62 ft | 10 kts | 236° |
| 2026-04-22 18:55 | 14.50788 | 121.01386 | 67 ft | 9 kts | 240° |
| 2026-04-22 18:55 | 14.50776 | 121.01365 | 64 ft | 0 kts | 240° |
| 2026-04-22 18:55 | 14.50779 | 121.01342 | 66 ft | 4 kts | 302° |
| 2026-04-22 18:56 | 14.50803 | 121.01329 | 66 ft | 4 kts | 335° |
| 2026-04-22 18:56 | 14.50824 | 121.01317 | 64 ft | 3 kts | 330° |
| 2026-04-22 18:56 | 14.50834 | 121.01311 | 66 ft | 1 kts | 330° |
| 2026-04-22 18:56 | 14.50840 | 121.01308 | 61 ft | 1 kts | 330° |
| 2026-04-22 18:57 | 14.50843 | 121.01305 | 68 ft | 0 kts | 330° |